Latest Weather Observations for Canberra

IDN60901

Issued at 3:41 pm EST Monday 27 June 2016 (issued every 10 minutes, with the page automatically refreshed every 10 minutes)

About weather observations | Map of Canberra area stations | Latest observations for Canberra area | Other Formats
Station Details ID: 070351 Name: CANBERRA AIRPORT Lat: -35.31 Lon: 149.20 Height: 577.05 m
Data from the previous 72 hours. | See also: Recent months at Canberra
Date/Time
EST
Temp
°C
App
Temp
°C
Dew
Point
°C
Rel
Hum
%
Delta-T
°C
Wind Press
QNH
hPa
Press
MSL
hPa
Rain since
9am
mm
Dir  Spd
km/h
Gust
km/h
Spd
kts
Gust
kts
27/03:30pm 9.4 4.5 2.3 61 3.1 NNW 17 20 9 11 1014.5 1015.3 0.0
27/03:00pm 10.5 6.3 1.9 55 3.8 NW 13 19 7 10 1014.3 1015.1 0.0
27/02:30pm 10.3 6.4 1.4 54 3.8 NW 11 17 6 9 1014.0 1014.9 0.0
27/02:00pm 10.0 6.1 0.9 53 3.9 WNW 11 15 6 8 1013.9 1014.8 0.0
27/01:30pm 9.1 5.8 2.7 64 2.8 N 9 13 5 7 1014.0 1014.9 0.0
27/01:00pm 8.1 5.3 3.0 70 2.2 N 7 11 4 6 1014.3 1015.1 0.0
27/12:30pm 6.9 4.0 2.6 74 1.8 N 7 13 4 7 1014.6 1015.4 0.0
27/12:21pm 6.6 3.7 2.5 75 1.8 NNW 7 13 4 7 1014.7 1015.6 0.0
27/12:00pm 5.4 2.7 2.9 84 1.1 SW 6 11 3 6 1015.0 1015.9 0.0
27/11:30am 4.9 2.0 2.6 85 1.0 NNW 7 11 4 6 1015.4 1016.3 0.0
27/11:00am 4.3 2.3 2.2 86 0.9 NNW 2 7 1 4 1015.8 1016.7 0.0
27/10:30am 4.1 1.3 2.0 86 0.9 NW 6 7 3 4 1015.8 1016.7 0.0
27/10:00am 4.0 2.0 2.2 88 0.7 SSW 2 7 1 4 1015.8 1016.7 0.0
27/09:30am 3.8 1.0 2.2 89 0.7 W 6 11 3 6 1015.7 1016.6 0.0
27/09:00am 3.5 0.7 1.9 89 0.7 NNW 6 11 3 6 1015.6 1016.5 0.0
27/08:30am 3.5 0.7 2.2 91 0.5 NNW 6 7 3 4 1015.5 1016.4 0.0
27/08:00am 3.4 0.7 2.4 93 0.4 NNW 6 7 3 4 1015.5 1016.4 0.0
27/07:30am 3.3 -0.4 2.4 94 0.4 N 11 15 6 8 1015.2 1016.1 0.0
27/07:00am 3.4 0.1 2.7 95 0.3 NNW 9 13 5 7 1014.9 1015.8 0.0
27/06:30am 3.4 0.1 2.7 95 0.3 NNW 9 13 5 7 1014.7 1015.6 0.0
27/06:00am 2.9 1.4 2.8 99 0.0 CALM 0 0 0 0 1014.7 1015.6 0.0
27/05:30am 2.8 1.2 2.7 99 0.0 CALM 0 0 0 0 1014.7 1015.6 0.0
27/05:00am 2.5 0.9 2.4 99 0.0 CALM 0 0 0 0 1014.5 1015.3 0.0
27/04:30am 2.1 -0.3 2.0 99 0.0 SSW 4 7 2 4 1014.5 1015.3 0.0
27/04:00am 2.2 -0.8 2.1 99 0.0 SSW 7 9 4 5 1014.4 1015.2 0.0
27/03:30am 2.1 0.4 2.0 99 0.0 CALM 0 0 0 0 1014.6 1015.4 0.0
27/03:00am 2.2 0.5 1.9 98 0.1 CALM 0 0 0 0 1014.8 1015.7 0.0
27/02:30am 2.2 -0.3 1.8 97 0.2 N 4 7 2 4 1015.0 1015.9 0.0
27/02:00am 2.6 -0.2 2.3 98 0.1 ENE 6 9 3 5 1015.2 1016.1 0.0
27/01:30am 2.3 -1.1 2.0 98 0.1 E 9 9 5 5 1015.4 1016.3 0.0
27/01:00am 2.0 0.3 1.7 98 0.1 CALM 0 0 0 0 1015.6 1016.5 0.0
27/12:30am 2.0 -0.9 1.7 98 0.1 ESE 6 6 3 3 1015.6 1016.5 0.0
27/12:00am 2.2 -0.6 1.9 98 0.1 WSW 6 7 3 4 1015.7 1016.6 0.0
 
Date/Time
EST
Temp
°C
App
Temp
°C
Dew
Point
°C
Rel
Hum
%
Delta-T
°C
Wind Press
QNH
hPa
Press
MSL
hPa
Rain since
9am
mm
Dir  Spd
km/h
Gust
km/h
Spd
kts
Gust
kts
26/11:30pm 2.1 -1.3 1.8 98 0.1 SW 9 11 5 6 1015.6 1016.5 0.0
26/11:00pm 2.2 -0.6 1.9 98 0.1 ESE 6 7 3 4 1015.6 1016.5 0.0
26/10:30pm 2.0 0.2 1.4 96 0.2 CALM 0 0 0 0 1016.0 1016.9 0.0
26/10:00pm 2.1 0.4 1.8 98 0.1 CALM 0 0 0 0 1016.2 1017.1 0.0
26/09:30pm 1.6 -0.9 1.3 98 0.1 S 4 7 2 4 1016.2 1017.1 0.0
26/09:00pm 1.6 -1.6 0.9 95 0.3 N 7 7 4 4 1016.4 1017.3 0.0
26/08:30pm 2.5 -0.5 1.8 95 0.3 E 7 9 4 5 1016.7 1017.6 0.0
26/08:00pm 1.8 -1.3 1.1 95 0.3 ESE 7 9 4 5 1016.8 1017.7 0.0
26/07:30pm 2.0 -1.5 1.1 94 0.4 NNW 9 9 5 5 1017.1 1018.0 0.0
26/07:00pm 2.6 -0.5 1.6 93 0.4 ESE 7 7 4 4 1016.7 1017.6 0.0
26/06:30pm 1.7 -0.3 0.2 90 0.6 CALM 0 7 0 4 1016.7 1017.6 0.0
26/06:00pm 2.7 0.9 0.9 88 0.7 CALM 0 4 0 2 1016.7 1017.6 0.0
26/05:30pm 3.5 0.4 1.5 87 0.8 ENE 7 9 4 5 1016.4 1017.3 0.0
26/05:00pm 4.2 1.1 1.4 82 1.1 ESE 7 9 4 5 1016.2 1017.1 0.0
26/04:30pm 6.3 3.4 1.6 72 2.0 W 6 7 3 4 1016.4 1017.3 0.0
26/04:00pm 7.5 5.8 1.6 66 2.5 CALM 0 0 0 0 1016.4 1017.3 0.0
26/03:30pm 7.4 5.7 1.7 67 2.4 CALM 0 0 0 0 1016.2 1017.1 0.0
26/03:00pm 7.2 5.5 1.7 68 2.3 CALM 0 0 0 0 1016.5 1017.4 0.0
26/02:30pm 7.0 5.2 1.5 68 2.3 CALM 0 0 0 0 1017.0 1017.9 0.0
26/02:00pm 6.7 4.9 1.4 69 2.2 CALM 0 0 0 0 1017.3 1018.2 0.0
26/01:30pm 6.3 4.1 1.0 69 2.2 WSW 2 6 1 3 1017.5 1018.4 0.0
26/01:00pm 6.1 4.3 1.1 70 2.1 CALM 0 0 0 0 1018.0 1018.9 0.0
26/12:30pm 5.5 2.9 1.1 73 1.8 NNW 4 7 2 4 1018.3 1019.2 0.0
26/12:00pm 5.2 2.2 0.8 73 1.8 WNW 6 9 3 5 1018.8 1019.7 0.0
26/11:30am 5.0 2.7 0.4 72 1.8 NNW 2 6 1 3 1019.6 1020.6 0.0
26/11:00am 3.7 0.5 -0.5 74 1.6 NW 6 9 3 5 1020.5 1021.4 0.0
26/10:30am 3.3 1.4 0.4 81 1.1 CALM 0 0 0 0 1021.0 1022.0 0.0
26/10:00am 1.6 -0.5 -0.5 86 0.8 CALM 0 0 0 0 1021.3 1022.3 0.0
26/09:30am 0.7 -1.4 -0.6 91 0.5 CALM 0 0 0 0 1021.4 1022.4 0.0
26/09:00am -0.8 -3.0 -1.9 92 0.4 CALM 0 0 0 0 1021.4 1022.4 0.2
26/08:30am -1.8 -4.1 -2.5 95 0.2 CALM 0 0 0 0 1021.3 1022.3 0.0
26/08:00am -3.4 -6.3 -3.9 96 0.0 SE 2 7 1 4 1021.2 1022.2 0.0
26/07:30am -4.3 -7.3 -4.7 97 0.0 ENE 2 7 1 4 1021.2 1022.2 0.0
26/07:00am -4.6 -7.2 -5.3 95 0.0 CALM 0 0 0 0 1021.1 1022.1 0.0
26/06:30am -4.8 -8.6 -5.5 95 0.0 N 6 7 3 4 1020.9 1021.9 0.0
26/06:00am -4.1 -7.0 -4.5 97 0.0 SE 2 6 1 3 1020.7 1021.7 0.0
26/05:30am -4.8 -7.5 -5.5 95 0.0 CALM 0 2 0 1 1020.5 1021.4 0.0
26/05:00am -4.0 -6.6 -4.5 96 0.0 CALM 0 0 0 0 1020.5 1021.4 0.0
26/04:30am -4.2 -7.9 -4.6 97 0.0 SSE 6 7 3 4 1020.4 1021.3 0.0
26/04:00am -4.3 -7.3 -5.0 95 0.0 N 2 7 1 4 1020.6 1021.6 0.0
26/03:30am -3.5 -8.1 -4.0 96 0.0 N 11 13 6 7 1020.4 1021.3 0.0
26/03:00am -2.9 -7.0 -3.2 98 0.0 E 9 9 5 5 1020.5 1021.4 0.0
26/02:30am -3.2 -7.4 -3.6 97 0.0 SE 9 11 5 6 1020.9 1021.9 0.0
26/02:00am -3.4 -7.2 -4.1 95 0.1 SSW 7 7 4 4 1021.3 1022.3 0.0
26/01:30am -3.1 -6.0 -3.8 95 0.1 E 2 9 1 5 1021.1 1022.1 0.0
26/01:00am -2.6 -5.0 -3.1 96 0.1 CALM 0 0 0 0 1021.2 1022.2 0.0
26/12:30am -3.6 -7.0 -4.9 91 0.3 ENE 4 9 2 5 1021.0 1022.0 0.0
26/12:00am -2.0 -5.5 -2.7 95 0.1 NNE 6 7 3 4 1020.9 1021.9 0.0
 
Date/Time
EST
Temp
°C
App
Temp
°C
Dew
Point
°C
Rel
Hum
%
Delta-T
°C
Wind Press
QNH
hPa
Press
MSL
hPa
Rain since
9am
mm
Dir  Spd
km/h
Gust
km/h
Spd
kts
Gust
kts
25/11:30pm -1.9 -4.2 -2.7 94 0.2 CALM 0 0 0 0 1020.9 1021.9 0.0
25/11:00pm -2.0 -5.7 -2.8 94 0.2 SSW 7 9 4 5 1021.0 1022.0 0.0
25/10:30pm -0.8 -3.4 -1.8 93 0.3 NW 2 6 1 3 1020.9 1021.9 0.0
25/10:00pm -2.2 -5.4 -3.8 89 0.4 ESE 4 9 2 5 1021.0 1022.0 0.0
25/09:30pm -1.4 -3.8 -3.3 87 0.6 CALM 0 0 0 0 1020.9 1021.9 0.0
25/09:00pm -0.3 -2.6 -2.7 84 0.8 CALM 0 0 0 0 1020.8 1021.8 0.0
25/08:30pm 0.4 -3.1 -1.7 86 0.8 ESE 7 9 4 5 1020.7 1021.7 0.0
25/08:00pm -1.0 -4.1 -2.9 87 0.6 ENE 4 9 2 5 1020.5 1021.4 0.0
25/07:30pm 0.9 -2.5 -2.3 79 1.2 NNE 6 9 3 5 1020.3 1021.2 0.0
25/07:00pm 2.2 -1.4 -2.1 73 1.6 NNE 7 9 4 5 1020.1 1021.0 0.0
25/06:30pm 2.9 -1.0 -1.6 72 1.7 N 9 11 5 6 1020.0 1020.9 0.0
25/06:00pm 4.0 -0.3 -1.6 67 2.1 NNW 11 13 6 7 1019.6 1020.6 0.0
25/05:30pm 4.4 -0.2 -1.4 66 2.2 NW 13 19 7 10 1019.2 1020.2 0.0
25/05:00pm 5.8 0.8 -1.1 61 2.7 WNW 15 22 8 12 1018.8 1019.7 0.0
25/04:30pm 7.3 1.5 -1.4 54 3.4 WNW 19 24 10 13 1018.8 1019.7 0.0
25/04:00pm 8.4 2.7 -1.1 51 3.8 WNW 19 24 10 13 1018.6 1019.5 0.0
25/03:30pm 8.8 2.9 -2.2 46 4.3 NW 19 24 10 13 1018.5 1019.4 0.0
25/03:00pm 9.2 3.1 -2.1 45 4.4 WNW 20 28 11 15 1018.3 1019.2 0.0
25/02:30pm 9.5 4.0 -2.1 44 4.6 WNW 17 28 9 15 1018.2 1019.1 0.0
25/02:00pm 9.7 4.4 -3.2 40 5.0 WNW 15 22 8 12 1018.2 1019.1 0.0
25/01:30pm 9.4 4.3 -5.3 35 5.4 SSW 13 19 7 10 1018.1 1019.0 0.0
25/01:00pm 9.2 3.8 -4.4 38 5.1 SW 15 20 8 11 1018.2 1019.1 0.0
25/12:30pm 8.2 3.9 -4.6 40 4.7 NW 9 17 5 9 1018.5 1019.4 0.0
25/12:00pm 8.4 3.8 -3.7 42 4.5 WNW 11 17 6 9 1018.8 1019.7 0.0
25/11:30am 8.1 3.6 -3.4 44 4.3 SW 11 19 6 10 1019.0 1019.9 0.0
25/11:00am 7.4 2.5 -3.7 45 4.1 SW 13 20 7 11 1019.2 1020.2 0.0
25/10:30am 6.1 2.4 -3.3 51 3.5 W 7 11 4 6 1019.3 1020.3 0.0
25/10:00am 5.9 1.8 -2.7 54 3.2 WSW 9 13 5 7 1019.3 1020.3 0.0
25/09:30am 4.7 0.3 -2.8 58 2.8 W 11 13 6 7 1019.0 1019.9 0.0
25/09:00am 3.3 1.0 -2.0 68 1.9 CALM 0 0 0 0 1018.7 1019.6 1.0
25/08:30am 1.7 -1.0 -2.1 76 1.4 SSE 2 6 1 3 1018.6 1019.5 1.0
25/08:00am -0.2 -3.7 -2.7 83 0.9 ESE 6 7 3 4 1018.4 1019.3 1.0
25/07:30am -2.0 -4.9 -3.9 87 0.5 E 2 9 1 5 1018.1 1019.0 1.0
25/07:00am -0.5 -4.2 -3.2 82 0.9 NE 7 13 4 7 1017.5 1018.4 1.0
25/06:30am 1.0 -2.7 -3.3 73 1.6 NW 7 11 4 6 1017.1 1018.0 1.0
25/06:00am -0.6 -5.5 -3.1 83 0.8 ENE 13 17 7 9 1016.7 1017.6 1.0
25/05:30am 2.1 -4.0 -2.6 71 1.7 W 20 26 11 14 1016.0 1016.9 1.0
25/05:00am 0.6 -4.6 -3.1 76 1.3 WNW 15 17 8 9 1015.8 1016.7 1.0
25/04:30am 1.2 -4.0 -2.5 76 1.4 WNW 15 20 8 11 1015.3 1016.2 1.0
25/04:00am 1.1 -4.5 -2.5 77 1.3 NW 17 20 9 11 1015.1 1016.0 1.0
25/03:30am 1.2 -4.3 -2.0 79 1.1 NW 17 20 9 11 1014.9 1015.8 1.0
25/03:00am 0.1 -5.4 -2.4 83 0.9 NNW 17 19 9 10 1014.7 1015.6 1.0
25/02:30am 1.1 -4.0 -2.1 79 1.2 NW 15 17 8 9 1014.5 1015.3 1.0
25/02:00am 1.1 -4.0 -2.1 79 1.2 WNW 15 19 8 10 1014.1 1015.0 1.0
25/01:30am 1.4 -3.4 -2.2 77 1.3 NNW 13 15 7 8 1013.7 1014.6 1.0
25/01:00am 2.3 -3.6 -2.0 73 1.6 NW 19 26 10 14 1013.6 1014.5 1.0
25/12:30am 1.8 -4.1 -2.1 75 1.4 NW 19 22 10 12 1013.3 1014.2 1.0
25/12:00am 2.8 -2.7 -2.1 70 1.8 NW 17 26 9 14 1012.9 1013.7 1.0
 
Date/Time
EST
Temp
°C
App
Temp
°C
Dew
Point
°C
Rel
Hum
%
Delta-T
°C
Wind Press
QNH
hPa
Press
MSL
hPa
Rain since
9am
mm
Dir  Spd
km/h
Gust
km/h
Spd
kts
Gust
kts
24/11:30pm 2.6 -2.8 -1.7 73 1.6 NW 17 20 9 11 1012.7 1013.5 1.0
24/11:00pm 2.7 -2.3 -1.3 75 1.5 NW 15 19 8 10 1012.5 1013.3 1.0
24/10:30pm 2.8 -2.6 -1.2 75 1.5 NNW 17 19 9 10 1012.1 1013.0 1.0
24/10:00pm 3.1 -1.9 -1.3 73 1.6 NW 15 24 8 13 1011.7 1012.5 1.0
24/09:30pm 2.9 -2.5 -1.5 73 1.6 NW 17 20 9 11 1011.4 1012.2 1.0
24/09:00pm 3.1 -2.7 -1.4 72 1.7 NW 19 30 10 16 1010.9 1011.7 1.0
24/08:30pm 4.0 -1.8 -1.8 66 2.2 WNW 19 28 10 15 1010.4 1011.3 1.0
24/08:00pm 4.0 -3.4 -0.6 72 1.8 WNW 28 35 15 19 1009.8 1010.6 1.0
24/07:30pm 3.6 -3.7 0.0 77 1.4 NW 28 37 15 20 1009.5 1010.3 1.0
24/07:00pm 3.7 -3.6 -0.3 75 1.6 WNW 28 35 15 19 1008.6 1009.4 1.0
24/06:30pm 4.0 -3.7 -0.4 73 1.7 WNW 30 37 16 20 1008.2 1009.0 1.0
24/06:00pm 4.3 -3.1 -0.7 70 1.9 WNW 28 35 15 19 1007.4 1008.2 1.0
24/05:30pm 3.8 -1.0 0.0 76 1.5 NW 15 20 8 11 1006.8 1007.6 1.0
24/05:00pm 3.7 -1.4 0.9 82 1.1 N 17 24 9 13 1006.3 1007.1 1.0
24/04:30pm 4.4 -0.3 1.1 79 1.3 NNW 15 26 8 14 1005.7 1006.4 1.0
24/04:00pm 4.6 -2.6 0.9 77 1.5 NW 28 41 15 22 1004.8 1005.6 1.0

Latest Capital City Observations: Canberra | Sydney | Melbourne | Brisbane | Adelaide | Perth | Hobart | Darwin

Other Formats:

Comma delimited format used in spreadsheet applications
http://www.bom.gov.au/fwo/IDN60903/IDN60903.94926.axf

JavaScript Object Notation format (JSON) in row-major order
http://www.bom.gov.au/fwo/IDN60903/IDN60903.94926.json